Time;durP1;ratioP1;P1;durP2;ratioP2;P2;SDS_P1;SDS_P2;PMS_P1;PMS_P2;Temp;Humidity;BMP_temperature;BMP_pressure;BME280_temperature;BME280_humidity;BME280_pressure;Samples;Min_cycle;Max_cycle;Signal;HPM_P1;HPM_P2
2022/04/12 00:00:59;;;;;;;0.70;0.70;;;-3.00;99.90;;;;;;4976909;28;20664;-80
2022/04/12 00:03:25;;;;;;;0.80;0.80;;;-3.10;99.90;;;;;;4975459;28;20196;-82
2022/04/12 00:05:51;;;;;;;0.70;0.70;;;-3.10;99.90;;;;;;4975632;28;20203;-82
2022/04/12 00:08:17;;;;;;;0.80;0.80;;;-3.20;99.90;;;;;;4975820;28;20212;-81
2022/04/12 00:10:43;;;;;;;0.80;0.80;;;-3.20;99.90;;;;;;4955934;28;20298;-82
2022/04/12 00:13:09;;;;;;;0.70;0.70;;;-3.20;99.90;;;;;;4939977;29;20208;-81
2022/04/12 00:15:35;;;;;;;0.80;0.80;;;-3.20;99.90;;;;;;4940079;29;20211;-81
2022/04/12 00:20:44;;;;;;;0.70;0.70;;;-3.30;99.90;;;;;;4957616;29;20229;-81
2022/04/12 00:23:12;;;;;;;0.88;0.88;;;-3.20;99.90;;;;;;4955916;29;20620;-81
2022/04/12 00:25:38;;;;;;;0.60;0.60;;;-3.30;99.90;;;;;;4940607;29;20236;-81
2022/04/12 00:28:05;;;;;;;0.77;0.77;;;-3.30;99.90;;;;;;4940490;29;20208;-80
2022/04/12 00:30:31;;;;;;;0.70;0.70;;;-3.40;99.90;;;;;;4940597;29;20201;-81
2022/04/12 00:32:56;;;;;;;1.00;1.00;;;-3.40;99.90;;;;;;4957989;29;20185;-81
2022/04/12 00:35:23;;;;;;;0.70;0.70;;;-3.40;99.90;;;;;;4956291;29;20205;-81
2022/04/12 00:37:50;;;;;;;0.88;0.88;;;-3.50;99.90;;;;;;4955764;29;20213;-80
2022/04/12 00:40:18;;;;;;;0.80;0.80;;;-3.50;99.90;;;;;;4957026;29;20204;-81
2022/04/12 00:42:44;;;;;;;0.70;0.70;;;-3.50;99.90;;;;;;4955562;29;20682;-81
2022/04/12 00:45:10;;;;;;;0.77;0.77;;;-3.50;99.90;;;;;;4955546;29;20197;-81
2022/04/12 00:47:36;;;;;;;0.70;0.70;;;-3.50;99.90;;;;;;4954452;28;20292;-82
2022/04/12 00:50:03;;;;;;;0.80;0.80;;;-3.60;99.90;;;;;;4955224;29;20251;-82
2022/04/12 00:52:30;;;;;;;0.80;0.80;;;-3.60;99.90;;;;;;4956440;29;20212;-82
2022/04/12 00:54:57;;;;;;;0.80;0.80;;;-3.60;99.90;;;;;;4939436;29;20688;-82
2022/04/12 00:57:23;;;;;;;0.80;0.80;;;-3.60;99.90;;;;;;4939260;29;20204;-83
2022/04/12 00:59:51;;;;;;;0.80;0.80;;;-3.70;99.90;;;;;;4939534;29;20199;-83
2022/04/12 01:02:16;;;;;;;0.80;0.80;;;-3.70;99.90;;;;;;4956566;29;20270;-82
2022/04/12 01:04:42;;;;;;;0.80;0.80;;;-3.60;99.90;;;;;;4939137;29;20201;-82
2022/04/12 01:07:09;;;;;;;0.70;0.70;;;-3.60;99.90;;;;;;4939375;29;20193;-83
2022/04/12 01:09:34;;;;;;;0.77;0.77;;;-3.60;99.90;;;;;;4953678;28;20694;-82
2022/04/12 01:12:08;;;;;;;0.70;0.70;;;-3.60;99.90;;;;;;4975505;28;20200;-83
2022/04/12 01:14:35;;;;;;;0.80;0.80;;;-3.60;99.90;;;;;;4975269;28;20712;-83
2022/04/12 01:17:06;;;;;;;0.75;0.75;;;-3.60;99.90;;;;;;4975517;28;20596;-83
2022/04/12 01:19:33;;;;;;;0.80;0.80;;;-3.60;99.90;;;;;;4976256;28;20239;-83
2022/04/12 01:22:03;;;;;;;0.82;0.82;;;-3.70;99.90;;;;;;4975454;28;20243;-83
2022/04/12 01:24:32;;;;;;;0.80;0.80;;;-3.80;99.90;;;;;;4977359;28;20205;-83
2022/04/12 01:26:57;;;;;;;0.80;0.80;;;-3.80;99.90;;;;;;4991386;28;20204;-83
2022/04/12 01:29:24;;;;;;;0.90;0.90;;;-3.70;99.90;;;;;;4975248;28;20590;-82
2022/04/12 01:31:50;;;;;;;0.73;0.73;;;-3.70;99.90;;;;;;4991028;28;20200;-83
2022/04/12 01:34:16;;;;;;;0.80;0.80;;;-3.70;99.90;;;;;;4991254;28;20204;-83
2022/04/12 01:36:41;;;;;;;2.17;1.98;;;-3.70;99.90;;;;;;4977170;28;20228;-84
2022/04/12 01:39:07;;;;;;;0.80;0.80;;;-3.70;99.90;;;;;;4955369;29;20209;-84
2022/04/12 01:41:33;;;;;;;0.70;0.70;;;-3.70;99.90;;;;;;4960601;28;20188;-83
2022/04/12 01:43:58;;;;;;;0.80;0.80;;;-3.70;99.90;;;;;;4974938;28;20263;-83
2022/04/12 01:46:24;;;;;;;0.80;0.80;;;-3.70;99.90;;;;;;4974291;28;20200;-83
2022/04/12 01:48:50;;;;;;;0.80;0.80;;;-3.80;99.90;;;;;;4974364;28;20200;-83
2022/04/12 01:51:16;;;;;;;0.90;0.90;;;-3.80;99.90;;;;;;4958311;28;20254;-83
2022/04/12 01:53:42;;;;;;;0.93;0.90;;;-3.80;99.90;;;;;;4975587;28;20690;-83
2022/04/12 01:56:08;;;;;;;0.90;0.90;;;-3.80;99.90;;;;;;4958326;28;20200;-83
2022/04/12 01:58:36;;;;;;;0.90;0.90;;;-3.90;99.90;;;;;;4973880;28;20212;-83
2022/04/12 02:01:02;;;;;;;0.82;0.82;;;-3.90;99.90;;;;;;4971075;28;20208;-83
2022/04/12 02:03:28;;;;;;;0.90;0.90;;;-3.90;99.90;;;;;;4973353;28;20687;-83
2022/04/12 02:05:54;;;;;;;0.80;0.80;;;-3.90;99.90;;;;;;4974013;28;20203;-83
2022/04/12 02:08:21;;;;;;;0.73;0.73;;;-4.00;99.90;;;;;;4975280;28;20279;-82
2022/04/12 02:10:47;;;;;;;0.80;0.80;;;-3.90;99.90;;;;;;4974405;28;20232;-82
2022/04/12 02:13:13;;;;;;;0.80;0.80;;;-3.90;99.90;;;;;;4973339;28;20262;-83
2022/04/12 02:15:38;;;;;;;0.80;0.80;;;-4.00;99.90;;;;;;4973176;28;20679;-82
2022/04/12 02:18:04;;;;;;;0.70;0.70;;;-3.90;99.90;;;;;;4973087;28;20222;-83
2022/04/12 02:20:30;;;;;;;0.75;0.75;;;-3.90;99.90;;;;;;4973141;28;20192;-82
2022/04/12 02:22:56;;;;;;;0.80;0.80;;;-3.90;99.90;;;;;;4989363;28;20279;-82
2022/04/12 02:25:22;;;;;;;0.80;0.80;;;-3.80;99.90;;;;;;4989930;28;20199;-81
2022/04/12 02:27:47;;;;;;;0.75;0.75;;;-3.80;99.90;;;;;;4990174;28;20664;-82
2022/04/12 02:30:13;;;;;;;0.80;0.80;;;-3.80;99.90;;;;;;4973557;28;20204;-82
2022/04/12 02:32:40;;;;;;;0.88;0.88;;;-3.90;99.90;;;;;;4989864;28;20343;-82
2022/04/12 02:35:07;;;;;;;0.90;0.90;;;-3.80;99.90;;;;;;4989322;28;20663;-82
2022/04/12 02:37:32;;;;;;;0.70;0.70;;;-3.90;99.90;;;;;;4973314;28;20207;-83
2022/04/12 02:39:58;;;;;;;0.98;0.98;;;-3.90;99.90;;;;;;4975155;28;20214;-83
2022/04/12 02:42:24;;;;;;;0.90;0.90;;;-4.00;99.90;;;;;;4974878;28;20193;-82
2022/04/12 02:44:49;;;;;;;0.90;0.90;;;-4.00;99.90;;;;;;4957638;28;20200;-82
2022/04/12 02:47:15;;;;;;;0.80;0.80;;;-4.00;99.90;;;;;;4957923;28;20199;-82
2022/04/12 02:49:41;;;;;;;0.90;0.90;;;-4.00;99.90;;;;;;4957660;28;20211;-83
2022/04/12 02:52:08;;;;;;;0.80;0.80;;;-4.00;99.90;;;;;;4957851;28;20272;-81
2022/04/12 02:54:34;;;;;;;0.90;0.90;;;-4.00;99.90;;;;;;4974654;28;20199;-81
2022/04/12 02:57:00;;;;;;;0.90;0.90;;;-4.00;99.90;;;;;;4957172;28;20702;-81
2022/04/12 02:59:26;;;;;;;0.80;0.80;;;-4.00;99.90;;;;;;4973361;28;20239;-82
2022/04/12 03:01:52;;;;;;;0.80;0.80;;;-4.00;99.90;;;;;;4972288;28;20207;-81
2022/04/12 03:04:18;;;;;;;0.90;0.90;;;-4.00;99.90;;;;;;4974532;28;20196;-81
2022/04/12 03:06:43;;;;;;;0.90;0.90;;;-4.10;99.90;;;;;;4973434;28;20563;-80
2022/04/12 03:09:09;;;;;;;0.80;0.80;;;-4.10;99.90;;;;;;4972721;28;20207;-81
2022/04/12 03:11:35;;;;;;;0.80;0.80;;;-4.10;99.90;;;;;;4956488;28;20379;-81
2022/04/12 03:14:02;;;;;;;1.00;1.00;;;-4.10;99.90;;;;;;4957174;29;20200;-80
2022/04/12 03:16:28;;;;;;;0.90;0.90;;;-4.10;99.90;;;;;;4958233;28;20216;-81
2022/04/12 03:18:54;;;;;;;0.73;0.73;;;-4.10;99.90;;;;;;4957074;29;20212;-81
2022/04/12 03:21:20;;;;;;;0.90;0.90;;;-4.10;99.90;;;;;;4958206;28;20235;-81
2022/04/12 03:23:45;;;;;;;0.80;0.80;;;-4.10;99.90;;;;;;4959370;29;20201;-81
2022/04/12 03:26:11;;;;;;;0.80;0.80;;;-4.10;99.90;;;;;;4957768;29;20604;-81
2022/04/12 03:28:37;;;;;;;1.20;1.15;;;-4.20;99.90;;;;;;4958931;29;20671;-81
2022/04/12 03:31:03;;;;;;;0.90;0.90;;;-4.20;99.90;;;;;;4957925;29;20591;-82
2022/04/12 03:33:28;;;;;;;0.82;0.82;;;-4.20;99.90;;;;;;4957609;29;20567;-82
2022/04/12 03:35:54;;;;;;;0.60;0.60;;;-4.20;99.90;;;;;;4965884;28;20198;-81
2022/04/12 03:38:20;;;;;;;0.70;0.70;;;-4.20;99.90;;;;;;4939703;29;20213;-81
2022/04/12 03:40:46;;;;;;;0.77;0.77;;;-4.30;99.90;;;;;;4971204;28;20211;-80
2022/04/12 03:43:12;;;;;;;0.90;0.90;;;-4.20;99.90;;;;;;4977711;28;20691;-81
2022/04/12 03:45:38;;;;;;;0.80;0.80;;;-4.20;99.90;;;;;;4976924;28;20319;-82
2022/04/12 03:48:06;;;;;;;0.80;0.80;;;-4.20;99.90;;;;;;4977804;28;20224;-81
2022/04/12 03:50:34;;;;;;;0.80;0.80;;;-4.20;99.90;;;;;;4976535;28;20196;-81
2022/04/12 03:53:01;;;;;;;0.90;0.90;;;-4.20;99.90;;;;;;4977270;28;20608;-81
2022/04/12 03:55:30;;;;;;;0.70;0.70;;;-4.20;99.90;;;;;;4977778;28;20275;-81
2022/04/12 03:58:07;;;;;;;1.00;1.00;;;-4.20;99.90;;;;;;4973146;28;20679;-83
2022/04/12 04:00:34;;;;;;;0.80;0.80;;;-4.30;99.90;;;;;;4972997;28;20276;-82
2022/04/12 04:03:00;;;;;;;0.90;0.90;;;-4.30;99.90;;;;;;4973086;28;20189;-81
2022/04/12 04:05:26;;;;;;;0.80;0.80;;;-4.30;99.90;;;;;;4972639;28;20224;-81
2022/04/12 04:07:53;;;;;;;0.80;0.80;;;-4.30;99.90;;;;;;4958392;29;20204;-81
2022/04/12 04:10:19;;;;;;;0.70;0.70;;;-4.30;99.90;;;;;;4971060;28;20800;-81
2022/04/12 04:12:45;;;;;;;0.80;0.80;;;-4.30;99.90;;;;;;4993927;28;20199;-81
2022/04/12 04:15:12;;;;;;;0.80;0.80;;;-4.30;99.90;;;;;;4976397;28;20207;-81
2022/04/12 04:17:42;;;;;;;0.90;0.90;;;-4.20;99.90;;;;;;4977399;28;20283;-81
2022/04/12 04:20:10;;;;;;;0.88;0.88;;;-4.20;99.90;;;;;;4976014;28;20279;-81
2022/04/12 04:22:35;;;;;;;0.90;0.90;;;-4.20;99.90;;;;;;4959524;28;20215;-81
2022/04/12 04:25:01;;;;;;;0.80;0.80;;;-4.20;99.90;;;;;;4976192;28;20197;-82
2022/04/12 04:27:30;;;;;;;0.85;0.85;;;-4.20;99.90;;;;;;4977188;28;20188;-82
2022/04/12 04:29:56;;;;;;;0.90;0.90;;;-4.20;99.90;;;;;;4978184;28;20243;-81
2022/04/12 04:32:22;;;;;;;0.80;0.80;;;-4.20;99.90;;;;;;4995061;28;20231;-82
2022/04/12 04:34:48;;;;;;;0.80;0.80;;;-4.20;99.90;;;;;;4996648;28;20211;-81
2022/04/12 04:37:14;;;;;;;0.90;0.90;;;-4.10;99.90;;;;;;4960710;28;20204;-81
2022/04/12 04:39:39;;;;;;;0.82;0.82;;;-4.10;99.90;;;;;;4959536;28;20299;-82
2022/04/12 04:42:05;;;;;;;0.70;0.70;;;-4.00;99.90;;;;;;4959721;28;20196;-82
2022/04/12 04:44:32;;;;;;;0.80;0.80;;;-4.00;99.90;;;;;;4959579;28;20199;-82
2022/04/12 04:46:58;;;;;;;0.88;0.88;;;-4.00;99.90;;;;;;4959523;28;20197;-81
2022/04/12 04:49:24;;;;;;;0.90;0.90;;;-3.90;99.90;;;;;;4959498;28;20204;-82
2022/04/12 04:51:49;;;;;;;1.52;1.42;;;-3.90;99.90;;;;;;4959397;28;20222;-82
2022/04/12 04:54:15;;;;;;;0.80;0.80;;;-3.80;99.90;;;;;;4958882;28;20675;-82
2022/04/12 04:56:40;;;;;;;0.98;0.98;;;-3.80;99.90;;;;;;4975537;28;20294;-81
2022/04/12 04:59:06;;;;;;;0.90;0.90;;;-3.70;99.90;;;;;;4975505;28;20303;-81
2022/04/12 05:01:32;;;;;;;1.13;1.13;;;-3.70;99.90;;;;;;4976434;28;20195;-82
2022/04/12 05:03:58;;;;;;;0.80;0.80;;;-3.60;99.90;;;;;;4975402;28;20188;-82
2022/04/12 05:06:23;;;;;;;0.80;0.80;;;-3.60;99.90;;;;;;4975315;28;20283;-81
2022/04/12 05:08:49;;;;;;;0.68;0.68;;;-3.60;99.90;;;;;;4975129;28;20267;-82
2022/04/12 05:11:15;;;;;;;0.90;0.90;;;-3.50;99.90;;;;;;4976498;28;20641;-81
2022/04/12 05:13:41;;;;;;;0.80;0.80;;;-3.40;99.90;;;;;;4983669;28;20283;-82
2022/04/12 05:16:06;;;;;;;0.90;0.90;;;-3.30;99.90;;;;;;4978310;28;20303;-82
2022/04/12 05:18:32;;;;;;;0.90;0.90;;;-3.20;99.90;;;;;;4977784;28;20203;-81
2022/04/12 05:20:58;;;;;;;0.80;0.80;;;-3.00;99.90;;;;;;4978078;28;20641;-82
2022/04/12 05:23:23;;;;;;;0.80;0.80;;;-2.90;99.90;;;;;;4978094;28;20222;-81
2022/04/12 05:25:53;;;;;;;0.70;0.70;;;-2.80;99.90;;;;;;4977853;28;20199;-82
2022/04/12 05:28:19;;;;;;;0.80;0.80;;;-2.60;99.90;;;;;;4976338;28;20287;-81
2022/04/12 05:30:45;;;;;;;0.80;0.80;;;-2.50;99.90;;;;;;4975039;28;20678;-81
2022/04/12 05:33:12;;;;;;;0.80;0.80;;;-2.30;99.90;;;;;;4975526;28;20227;-83
2022/04/12 05:35:38;;;;;;;0.70;0.70;;;-2.10;99.90;;;;;;4958609;28;20302;-81
2022/04/12 05:38:06;;;;;;;0.85;0.85;;;-2.00;99.90;;;;;;4958825;28;20303;-82
2022/04/12 05:40:32;;;;;;;0.80;0.80;;;-1.90;99.90;;;;;;4958071;28;20200;-82
2022/04/12 05:42:58;;;;;;;0.70;0.70;;;-1.70;99.90;;;;;;4958487;28;20271;-83
2022/04/12 05:45:23;;;;;;;0.75;0.75;;;-1.60;99.90;;;;;;4958552;28;20228;-83
2022/04/12 05:47:51;;;;;;;0.77;0.77;;;-1.50;99.90;;;;;;4958644;28;20204;-82
2022/04/12 05:50:19;;;;;;;0.70;0.70;;;-1.50;99.90;;;;;;4977058;28;20612;-82
2022/04/12 05:52:45;;;;;;;0.65;0.65;;;-1.40;99.90;;;;;;4977498;28;20252;-82
2022/04/12 05:55:19;;;;;;;0.80;0.80;;;-1.30;99.90;;;;;;4994973;28;20283;-82
2022/04/12 05:57:50;;;;;;;0.75;0.75;;;-1.30;99.90;;;;;;4977523;28;20222;-84
2022/04/12 06:00:16;;;;;;;0.90;0.90;;;-1.10;99.90;;;;;;4977657;28;20207;-83
2022/04/12 06:02:42;;;;;;;0.80;0.80;;;-1.00;99.90;;;;;;4993395;28;20199;-83
2022/04/12 06:05:07;;;;;;;0.60;0.60;;;-0.90;99.90;;;;;;4992175;28;20197;-83
2022/04/12 06:07:34;;;;;;;0.70;0.70;;;-0.70;99.90;;;;;;4974075;28;20203;-83
2022/04/12 06:10:01;;;;;;;0.80;0.80;;;-0.60;99.90;;;;;;4974953;28;20286;-83
2022/04/12 06:12:27;;;;;;;0.70;0.70;;;-0.40;99.90;;;;;;4975302;28;20558;-84
2022/04/12 06:14:54;;;;;;;0.90;0.90;;;-0.20;99.90;;;;;;4958107;28;20196;-83
2022/04/12 06:17:20;;;;;;;0.70;0.70;;;0.10;99.90;;;;;;4957695;28;20228;-82
2022/04/12 06:19:46;;;;;;;0.63;0.63;;;0.30;99.90;;;;;;4975175;28;20702;-83
2022/04/12 06:22:12;;;;;;;0.70;0.70;;;0.50;99.90;;;;;;4957938;28;20283;-83
2022/04/12 06:24:39;;;;;;;0.70;0.70;;;0.70;99.90;;;;;;4973524;28;20270;-82
2022/04/12 06:27:05;;;;;;;0.70;0.70;;;1.00;99.90;;;;;;4973812;28;20196;-83
2022/04/12 06:29:30;;;;;;;0.65;0.65;;;1.20;99.90;;;;;;4957341;28;20686;-83
2022/04/12 06:31:56;;;;;;;0.60;0.60;;;1.50;99.90;;;;;;4957476;28;20204;-83
2022/04/12 06:34:22;;;;;;;0.73;0.73;;;1.60;99.90;;;;;;4984225;28;20575;-83
2022/04/12 06:36:47;;;;;;;0.70;0.70;;;1.80;99.90;;;;;;4975691;28;20196;-83
2022/04/12 06:39:13;;;;;;;1.70;1.60;;;2.00;99.90;;;;;;4976009;28;20215;-83
2022/04/12 06:41:39;;;;;;;0.50;0.50;;;2.10;99.90;;;;;;4975492;28;20282;-83
2022/04/12 06:44:06;;;;;;;0.60;0.60;;;2.20;99.90;;;;;;4993137;28;20682;-83
2022/04/12 06:46:32;;;;;;;0.70;0.70;;;2.30;99.90;;;;;;4991583;28;20204;-83
2022/04/12 06:48:58;;;;;;;0.77;0.77;;;2.50;99.90;;;;;;4992227;28;20195;-83
2022/04/12 06:51:23;;;;;;;0.80;0.80;;;2.70;99.90;;;;;;4975375;28;20613;-83
2022/04/12 06:53:50;;;;;;;0.68;0.68;;;2.90;99.90;;;;;;4993410;28;20253;-84
2022/04/12 06:56:16;;;;;;;0.60;0.60;;;3.00;99.90;;;;;;4976631;28;20204;-83
2022/04/12 06:58:43;;;;;;;0.60;0.60;;;3.20;99.90;;;;;;4992599;28;20278;-83
2022/04/12 07:01:09;;;;;;;0.60;0.60;;;3.30;99.90;;;;;;4992757;28;20191;-83
2022/04/12 07:03:35;;;;;;;0.50;0.50;;;3.40;99.90;;;;;;4976359;28;20191;-83
2022/04/12 07:06:01;;;;;;;0.75;0.75;;;3.50;99.90;;;;;;4969659;28;20212;-84
2022/04/12 07:08:26;;;;;;;0.70;0.70;;;3.60;99.90;;;;;;4969764;28;20291;-83
2022/04/12 07:10:52;;;;;;;0.60;0.60;;;3.90;99.90;;;;;;4954803;28;20708;-84
2022/04/12 07:13:19;;;;;;;0.68;0.68;;;4.00;99.90;;;;;;4953593;28;20204;-84
2022/04/12 07:15:46;;;;;;;1.10;1.00;;;4.20;99.90;;;;;;4954332;29;20240;-84
2022/04/12 07:18:12;;;;;;;0.60;0.60;;;4.30;99.90;;;;;;4954006;29;20204;-84
2022/04/12 07:20:40;;;;;;;0.70;0.70;;;4.50;99.90;;;;;;4970325;28;20192;-83
2022/04/12 07:23:06;;;;;;;0.70;0.70;;;4.70;99.90;;;;;;4973432;28;20563;-84
2022/04/12 07:25:32;;;;;;;0.90;0.90;;;4.80;99.90;;;;;;4974269;28;20189;-83
2022/04/12 07:27:57;;;;;;;0.70;0.70;;;5.10;99.90;;;;;;4973140;28;20668;-84
2022/04/12 07:30:23;;;;;;;0.60;0.60;;;5.30;99.90;;;;;;4972765;28;20197;-83
2022/04/12 07:32:49;;;;;;;0.75;0.75;;;5.40;99.90;;;;;;4973131;28;20204;-84
2022/04/12 07:35:14;;;;;;;0.63;0.63;;;5.50;99.90;;;;;;4972950;28;20196;-84
2022/04/12 07:37:43;;;;;;;0.70;0.70;;;5.50;99.90;;;;;;4972805;28;20630;-84
2022/04/12 07:40:10;;;;;;;0.70;0.70;;;5.60;99.90;;;;;;4973091;28;20232;-85
2022/04/12 07:42:35;;;;;;;0.70;0.70;;;5.80;99.90;;;;;;4973624;28;20287;-84
2022/04/12 07:45:01;;;;;;;0.70;0.70;;;5.80;99.90;;;;;;4974126;28;20280;-84
2022/04/12 07:47:28;;;;;;;0.70;0.70;;;6.10;99.90;;;;;;4973590;28;20290;-84
2022/04/12 07:49:54;;;;;;;0.60;0.60;;;6.20;99.90;;;;;;4956775;28;20291;-84
2022/04/12 07:52:20;;;;;;;0.60;0.60;;;6.10;99.90;;;;;;4956684;28;20294;-84
2022/04/12 07:54:46;;;;;;;0.60;0.60;;;6.20;99.90;;;;;;4974152;28;20564;-84
2022/04/12 07:57:11;;;;;;;1.25;1.15;;;6.40;99.90;;;;;;4976615;28;20690;-84
2022/04/12 07:59:38;;;;;;;0.70;0.70;;;6.40;99.90;;;;;;4960062;28;20306;-83
2022/04/12 08:02:04;;;;;;;2.28;1.50;;;6.50;99.90;;;;;;4960203;28;20196;-83
2022/04/12 08:04:29;;;;;;;0.90;0.90;;;6.50;99.90;;;;;;4960169;28;20228;-83
2022/04/12 08:06:55;;;;;;;0.70;0.70;;;6.60;99.90;;;;;;4960436;28;20234;-83
2022/04/12 08:09:21;;;;;;;0.70;0.70;;;6.70;99.90;;;;;;4960176;28;20609;-83
2022/04/12 08:11:46;;;;;;;0.70;0.70;;;6.90;99.90;;;;;;4977471;28;20239;-83
2022/04/12 08:14:12;;;;;;;0.80;0.80;;;7.20;99.90;;;;;;4977823;28;20210;-84
2022/04/12 08:16:38;;;;;;;0.80;0.80;;;7.30;99.90;;;;;;4959878;28;20215;-84
2022/04/12 08:19:03;;;;;;;0.70;0.70;;;7.40;99.90;;;;;;4975300;28;20215;-84
2022/04/12 08:21:38;;;;;;;0.70;0.70;;;7.70;99.90;;;;;;4975948;28;20200;-84
2022/04/12 08:24:04;;;;;;;0.93;0.93;;;7.90;99.90;;;;;;4976130;28;20188;-84
2022/04/12 08:26:30;;;;;;;0.70;0.70;;;8.10;99.90;;;;;;4975508;28;20208;-82
2022/04/12 08:28:56;;;;;;;0.80;0.80;;;8.20;99.90;;;;;;4976001;28;20255;-85
2022/04/12 08:31:22;;;;;;;0.70;0.70;;;8.20;99.90;;;;;;4977099;28;20196;-84
2022/04/12 08:33:48;;;;;;;0.70;0.70;;;8.00;99.90;;;;;;4975993;28;20218;-83
2022/04/12 08:36:16;;;;;;;0.70;0.70;;;8.10;99.60;;;;;;4975752;28;20196;-83
2022/04/12 08:38:43;;;;;;;0.60;0.60;;;8.30;99.90;;;;;;4975371;28;20254;-83
2022/04/12 08:41:10;;;;;;;0.70;0.70;;;8.50;99.90;;;;;;4960970;28;20704;-83
2022/04/12 08:43:37;;;;;;;0.80;0.80;;;8.90;99.90;;;;;;4975613;28;20634;-83
2022/04/12 08:46:05;;;;;;;0.60;0.60;;;9.10;99.90;;;;;;4975601;28;20659;-83
2022/04/12 08:48:32;;;;;;;0.85;0.85;;;9.00;99.90;;;;;;4976701;28;20566;-83
2022/04/12 08:50:58;;;;;;;0.70;0.70;;;9.30;97.80;;;;;;4975718;28;20200;-83
2022/04/12 08:53:25;;;;;;;0.60;0.60;;;9.20;97.70;;;;;;4976569;28;20199;-83
2022/04/12 08:55:51;;;;;;;0.68;0.68;;;9.40;96.10;;;;;;4975917;28;20691;-83
2022/04/12 08:58:16;;;;;;;0.60;0.60;;;9.50;98.00;;;;;;4975525;28;20216;-83
2022/04/12 09:00:43;;;;;;;0.60;0.60;;;9.70;96.00;;;;;;4975237;28;20231;-83
2022/04/12 09:03:15;;;;;;;0.60;0.60;;;9.80;97.40;;;;;;4975369;28;20609;-83
2022/04/12 09:05:40;;;;;;;0.70;0.70;;;10.00;96.10;;;;;;4974967;28;20203;-83
2022/04/12 09:08:29;;;;;;;0.65;0.65;;;10.20;95.00;;;;;;4975639;28;20196;-83
2022/04/12 09:11:07;;;;;;;0.60;0.60;;;10.00;97.90;;;;;;4978262;28;20727;-83
2022/04/12 09:13:33;;;;;;;0.60;0.60;;;10.20;95.10;;;;;;4939538;29;20240;-83
2022/04/12 09:15:59;;;;;;;0.82;0.82;;;10.40;95.40;;;;;;4957178;28;20743;-83
2022/04/12 09:18:38;;;;;;;0.60;0.60;;;10.70;92.80;;;;;;4956891;29;20200;-83
2022/04/12 09:21:17;;;;;;;0.65;0.65;;;10.80;93.10;;;;;;4955812;28;20201;-83
2022/04/12 09:23:51;;;;;;;0.60;0.60;;;11.00;93.00;;;;;;4939511;29;20197;-83
2022/04/12 09:26:25;;;;;;;0.50;0.50;;;11.10;92.10;;;;;;4956930;29;20192;-83
2022/04/12 09:28:53;;;;;;;0.88;0.88;;;11.20;92.00;;;;;;4956989;29;20721;-83
2022/04/12 09:31:20;;;;;;;0.57;0.57;;;11.20;93.20;;;;;;4939617;29;20699;-83
2022/04/12 09:33:48;;;;;;;0.50;0.50;;;11.30;89.90;;;;;;4961326;28;20667;-81
2022/04/12 09:36:14;;;;;;;0.50;0.50;;;11.10;88.90;;;;;;4976146;28;20196;-82
2022/04/12 09:38:41;;;;;;;0.70;0.70;;;10.80;90.60;;;;;;4974392;28;20216;-82
2022/04/12 09:41:15;;;;;;;0.60;0.60;;;10.70;90.00;;;;;;4963198;28;20579;-82
2022/04/12 09:43:53;;;;;;;0.50;0.50;;;10.70;89.60;;;;;;4993908;28;20207;-82
2022/04/12 09:46:19;;;;;;;0.60;0.60;;;10.70;90.90;;;;;;4995054;28;20673;-82
2022/04/12 09:48:47;;;;;;;0.50;0.50;;;10.90;90.20;;;;;;4995658;28;20231;-82
2022/04/12 09:51:13;;;;;;;0.60;0.60;;;11.00;90.00;;;;;;4977654;28;20200;-81
2022/04/12 09:53:41;;;;;;;0.60;0.60;;;11.00;87.80;;;;;;4993030;28;20646;-81
2022/04/12 09:56:15;;;;;;;0.50;0.50;;;11.10;90.80;;;;;;4977091;28;20210;-82
2022/04/12 09:58:44;;;;;;;0.55;0.55;;;10.90;88.10;;;;;;4993454;28;20214;-82
2022/04/12 10:01:10;;;;;;;0.80;0.80;;;11.00;88.30;;;;;;4994825;28;20805;-82
2022/04/12 10:03:37;;;;;;;0.60;0.60;;;11.30;90.40;;;;;;4994698;28;20219;-83
2022/04/12 10:06:04;;;;;;;1.58;1.05;;;11.70;87.60;;;;;;4993856;28;20299;-83
2022/04/12 10:08:34;;;;;;;0.50;0.50;;;11.90;85.90;;;;;;4983549;28;20208;-83
2022/04/12 10:11:00;;;;;;;0.60;0.60;;;12.00;90.30;;;;;;4973333;28;20270;-83
2022/04/12 10:13:28;;;;;;;0.60;0.60;;;12.00;84.00;;;;;;4974588;28;20200;-83
2022/04/12 10:15:55;;;;;;;0.65;0.65;;;12.20;86.10;;;;;;4973218;28;20239;-83
2022/04/12 10:18:21;;;;;;;0.50;0.50;;;12.20;80.60;;;;;;4972870;28;20213;-83
2022/04/12 10:20:46;;;;;;;0.50;0.50;;;12.20;84.30;;;;;;4972895;28;20200;-83
2022/04/12 10:23:16;;;;;;;0.57;0.57;;;12.40;86.50;;;;;;4973061;28;20206;-84
2022/04/12 10:25:47;;;;;;;0.60;0.60;;;12.40;80.60;;;;;;4957016;28;20196;-83
2022/04/12 10:28:14;;;;;;;0.50;0.50;;;12.40;83.20;;;;;;4973613;28;20204;-83
2022/04/12 10:30:40;;;;;;;0.50;0.50;;;12.40;79.70;;;;;;4973575;28;20215;-84
2022/04/12 10:33:05;;;;;;;0.50;0.50;;;12.50;83.10;;;;;;4957275;28;20663;-83
2022/04/12 10:35:46;;;;;;;0.50;0.50;;;12.50;79.30;;;;;;4973182;28;20239;-83
2022/04/12 10:38:14;;;;;;;0.50;0.50;;;12.80;80.60;;;;;;4975860;28;20704;-82
2022/04/12 10:40:49;;;;;;;0.50;0.50;;;13.00;81.70;;;;;;4975237;28;20559;-83
2022/04/12 10:43:33;;;;;;;0.47;0.47;;;12.60;76.60;;;;;;4973698;28;20194;-83
2022/04/12 10:46:03;;;;;;;0.50;0.50;;;12.40;77.20;;;;;;4957444;28;20707;-82
2022/04/12 10:48:30;;;;;;;0.50;0.50;;;12.20;78.20;;;;;;4974923;28;20198;-82
2022/04/12 10:50:59;;;;;;;0.60;0.60;;;12.10;80.60;;;;;;4973775;28;20258;-83
2022/04/12 10:53:40;;;;;;;0.40;0.40;;;12.40;82.20;;;;;;4973526;28;20224;-83
2022/04/12 10:56:11;;;;;;;0.60;0.60;;;12.80;78.80;;;;;;4973966;28;20211;-83
2022/04/12 10:58:37;;;;;;;0.50;0.50;;;12.90;74.10;;;;;;4974641;28;20675;-83
2022/04/12 11:01:08;;;;;;;0.60;0.60;;;12.80;81.00;;;;;;4973543;28;20208;-83
2022/04/12 11:03:44;;;;;;;0.50;0.50;;;13.10;78.30;;;;;;4974423;28;20192;-83
2022/04/12 11:06:11;;;;;;;0.50;0.50;;;13.60;76.80;;;;;;4989650;28;20566;-83
2022/04/12 11:08:46;;;;;;;0.50;0.50;;;14.10;76.80;;;;;;4989779;28;20733;-83
2022/04/12 11:11:17;;;;;;;0.50;0.50;;;14.40;74.70;;;;;;4973156;28;20288;-83
2022/04/12 11:13:44;;;;;;;0.40;0.40;;;14.20;73.40;;;;;;4974393;28;20303;-83
2022/04/12 11:16:11;;;;;;;0.40;0.40;;;13.90;75.10;;;;;;4989443;28;20208;-82
2022/04/12 11:18:57;;;;;;;0.40;0.40;;;14.20;76.80;;;;;;4974382;28;20290;-83
2022/04/12 11:21:46;;;;;;;0.40;0.40;;;14.80;72.10;;;;;;4989536;28;20259;-82
2022/04/12 11:24:15;;;;;;;0.35;0.35;;;15.00;70.30;;;;;;4978073;28;20316;-82
2022/04/12 11:26:46;;;;;;;0.47;0.47;;;14.80;71.80;;;;;;4972911;28;20671;-83
2022/04/12 11:29:31;;;;;;;0.40;0.40;;;14.70;68.60;;;;;;4957282;28;20276;-81
2022/04/12 11:31:58;;;;;;;0.40;0.40;;;14.90;66.90;;;;;;4976856;28;20283;-82
2022/04/12 11:34:26;;;;;;;0.35;0.35;;;14.40;66.40;;;;;;4960823;28;20196;-82
2022/04/12 11:36:54;;;;;;;0.50;0.50;;;14.00;63.60;;;;;;4977129;28;20257;-82
2022/04/12 11:39:28;;;;;;;0.55;0.55;;;14.00;62.80;;;;;;4977988;28;20645;-81
2022/04/12 11:41:59;;;;;;;0.40;0.40;;;13.90;58.80;;;;;;4966902;28;20243;-81
2022/04/12 11:44:25;;;;;;;0.50;0.50;;;13.70;63.50;;;;;;4957190;29;20271;-81
2022/04/12 11:47:01;;;;;;;0.50;0.50;;;13.80;64.90;;;;;;4957478;29;20672;-82
2022/04/12 11:49:45;;;;;;;0.50;0.50;;;13.90;60.60;;;;;;4957255;29;20683;-81
2022/04/12 11:52:13;;;;;;;0.47;0.47;;;14.30;64.20;;;;;;4958557;29;20208;-83
2022/04/12 11:54:48;;;;;;;0.30;0.30;;;14.30;60.50;;;;;;4957015;29;20676;-84
2022/04/12 11:57:22;;;;;;;0.40;0.40;;;14.10;66.50;;;;;;4957245;29;20204;-82
2022/04/12 11:59:50;;;;;;;0.50;0.50;;;13.80;64.20;;;;;;4957155;28;20213;-84
2022/04/12 12:02:19;;;;;;;0.52;0.52;;;14.00;64.00;;;;;;4959444;28;20698;-83
2022/04/12 12:04:46;;;;;;;0.50;0.50;;;14.10;66.60;;;;;;4978113;28;20501;-83
2022/04/12 12:07:12;;;;;;;0.40;0.40;;;13.90;62.50;;;;;;4976544;28;20723;-84
2022/04/12 12:09:49;;;;;;;0.47;0.47;;;13.80;68.20;;;;;;4976320;28;20234;-84
2022/04/12 12:12:17;;;;;;;0.50;0.50;;;14.00;69.20;;;;;;4960224;28;20299;-83
2022/04/12 12:14:43;;;;;;;0.40;0.40;;;14.30;67.10;;;;;;4960171;28;20216;-83
2022/04/12 12:17:12;;;;;;;0.35;0.35;;;14.30;66.80;;;;;;4976560;28;20204;-82
2022/04/12 12:19:39;;;;;;;0.40;0.40;;;14.40;64.80;;;;;;4960248;28;20624;-81
2022/04/12 12:22:10;;;;;;;0.40;0.40;;;14.20;66.30;;;;;;4960144;28;20607;-81
2022/04/12 12:24:56;;;;;;;0.40;0.40;;;14.10;65.80;;;;;;4959927;28;20656;-81
2022/04/12 12:27:36;;;;;;;0.40;0.40;;;14.00;70.60;;;;;;4959760;28;20619;-81
2022/04/12 12:30:09;;;;;;;0.50;0.50;;;14.00;62.80;;;;;;4977119;28;20552;-81
2022/04/12 12:32:41;;;;;;;0.55;0.55;;;13.80;65.10;;;;;;4959998;28;20200;-80
2022/04/12 12:35:11;;;;;;;0.40;0.40;;;13.70;65.70;;;;;;4959638;28;20203;-80
2022/04/12 12:37:38;;;;;;;0.50;0.50;;;13.50;66.40;;;;;;4975581;28;20206;-82
2022/04/12 12:40:24;;;;;;;0.50;0.50;;;13.40;68.80;;;;;;4975651;28;20259;-82
2022/04/12 12:42:51;;;;;;;0.43;0.43;;;13.30;68.50;;;;;;4971186;28;20199;-82
2022/04/12 12:45:20;;;;;;;0.50;0.50;;;13.40;67.80;;;;;;4956448;29;20197;-83
2022/04/12 12:47:49;;;;;;;0.43;0.43;;;13.50;68.60;;;;;;4956380;29;20275;-82
2022/04/12 12:50:16;;;;;;;0.60;0.60;;;13.60;65.60;;;;;;4974738;28;20279;-83
2022/04/12 12:52:45;;;;;;;0.47;0.47;;;13.80;66.40;;;;;;4975391;28;20264;-81